createdAt,value
2023-05-10T00:01:48.444Z,57.25
2023-05-10T00:04:16.290Z,57.37
2023-05-10T00:06:44.219Z,57.40
2023-05-10T00:09:12.016Z,57.53
2023-05-10T00:11:39.704Z,57.57
2023-05-10T00:14:07.447Z,58.09
2023-05-10T00:16:35.323Z,58.87
2023-05-10T00:19:03.277Z,58.98
2023-05-10T00:21:31.007Z,59.02
2023-05-10T00:23:59.329Z,59.37
2023-05-10T00:26:27.237Z,59.44
2023-05-10T00:28:55.344Z,59.44
2023-05-10T00:31:23.468Z,59.50
2023-05-10T00:33:51.976Z,59.44
2023-05-10T00:36:19.880Z,59.56
2023-05-10T00:38:47.749Z,59.62
2023-05-10T00:41:16.258Z,59.78
2023-05-10T00:43:44.515Z,59.76
2023-05-10T00:46:12.676Z,59.80
2023-05-10T00:48:41.106Z,59.67
2023-05-10T00:51:08.793Z,59.63
2023-05-10T00:53:36.890Z,59.72
2023-05-10T00:56:05.421Z,59.68
2023-05-10T00:58:33.368Z,59.86
2023-05-10T01:01:01.486Z,59.95
2023-05-10T01:03:30.049Z,59.99
2023-05-10T01:05:58.051Z,59.99
2023-05-10T01:08:26.969Z,59.95
2023-05-10T01:10:55.213Z,59.99
2023-05-10T01:13:49.528Z,59.90
2023-05-10T01:16:17.774Z,59.79
2023-05-10T01:18:46.225Z,59.96
2023-05-10T01:21:34.565Z,60.19
2023-05-10T01:24:02.239Z,60.33
2023-05-10T01:26:30.008Z,60.19
2023-05-10T01:29:19.441Z,60.32
2023-05-10T01:32:10.285Z,60.30
2023-05-10T01:34:47.680Z,60.33
2023-05-10T01:37:17.877Z,60.25
2023-05-10T01:39:47.040Z,60.30
2023-05-10T01:42:17.737Z,60.33
2023-05-10T01:44:59.709Z,60.25
2023-05-10T01:47:33.643Z,60.25
2023-05-10T01:50:03.547Z,60.50
2023-05-10T01:52:33.703Z,60.41
2023-05-10T01:55:02.595Z,60.49
2023-05-10T01:57:34.940Z,60.47
2023-05-10T02:00:04.608Z,60.52
2023-05-10T02:02:45.415Z,60.67
2023-05-10T02:05:14.566Z,60.82
2023-05-10T02:07:43.492Z,60.94
2023-05-10T02:10:11.892Z,61.02
2023-05-10T02:12:43.350Z,61.23
2023-05-10T02:15:12.792Z,61.28
2023-05-10T02:17:42.585Z,61.29
2023-05-10T02:20:12.488Z,61.33
2023-05-10T02:22:41.542Z,61.24
2023-05-10T02:25:10.145Z,61.22
2023-05-10T02:27:38.202Z,61.42
2023-05-10T02:30:07.082Z,61.46
2023-05-10T02:32:35.107Z,61.47
2023-05-10T02:35:04.062Z,61.51
2023-05-10T02:37:33.402Z,61.53
2023-05-10T02:40:01.736Z,61.38
2023-05-10T02:42:32.147Z,61.47
2023-05-10T02:45:04.599Z,61.41
2023-05-10T02:47:32.693Z,61.44
2023-05-10T02:50:00.667Z,61.58
2023-05-10T02:52:30.685Z,61.63
2023-05-10T02:55:01.054Z,61.88
2023-05-10T02:57:30.689Z,61.97
2023-05-10T02:59:58.627Z,62.41
2023-05-10T03:02:26.539Z,62.59
2023-05-10T03:04:54.515Z,62.88
2023-05-10T03:07:23.525Z,62.93
2023-05-10T03:09:51.519Z,62.90
2023-05-10T03:12:19.284Z,62.82
2023-05-10T03:15:08.255Z,62.77
2023-05-10T03:17:48.830Z,62.49
2023-05-10T03:20:21.682Z,62.33
2023-05-10T03:22:52.418Z,62.21
2023-05-10T03:25:22.284Z,62.23
2023-05-10T03:27:50.732Z,62.30
2023-05-10T03:30:19.804Z,62.38
2023-05-10T03:32:47.837Z,62.42
2023-05-10T03:35:17.635Z,62.37
2023-05-10T03:37:45.789Z,62.29
2023-05-10T03:40:13.956Z,62.24
2023-05-10T03:42:42.918Z,62.33
2023-05-10T03:45:10.679Z,62.19
2023-05-10T03:47:39.044Z,62.06
2023-05-10T03:50:07.911Z,62.06
2023-05-10T03:52:35.700Z,62.10
2023-05-10T03:55:04.747Z,62.18
2023-05-10T03:57:32.722Z,62.04
2023-05-10T04:00:01.402Z,61.98
2023-05-10T04:02:30.260Z,61.92
2023-05-10T04:04:58.444Z,61.80
2023-05-10T04:07:26.191Z,61.91
2023-05-10T04:09:54.267Z,61.86
2023-05-10T04:12:23.409Z,61.97
2023-05-10T04:14:52.039Z,61.68
2023-05-10T04:17:19.994Z,61.60
2023-05-10T04:19:47.956Z,61.45
2023-05-10T04:22:15.686Z,61.20
2023-05-10T04:24:43.387Z,61.20
2023-05-10T04:27:12.413Z,60.98
2023-05-10T04:29:40.280Z,60.85
2023-05-10T04:32:08.367Z,60.63
2023-05-10T04:34:36.161Z,62.45
2023-05-10T04:37:04.103Z,60.59
2023-05-10T04:39:32.279Z,59.83
2023-05-10T04:42:00.224Z,59.67
2023-05-10T04:44:27.884Z,59.74
2023-05-10T04:46:55.985Z,59.63
2023-05-10T04:49:23.818Z,59.66
2023-05-10T04:51:51.637Z,59.75
2023-05-10T04:54:19.758Z,59.61
2023-05-10T04:56:47.689Z,58.75
2023-05-10T04:59:15.724Z,57.60
2023-05-10T05:01:43.614Z,57.32
2023-05-10T05:04:11.341Z,56.86
2023-05-10T05:06:39.250Z,56.17
2023-05-10T05:09:06.999Z,55.84
2023-05-10T05:11:34.860Z,55.84
2023-05-10T05:14:02.513Z,55.47
2023-05-10T05:16:32.121Z,55.07
2023-05-10T05:19:00.907Z,54.61
2023-05-10T05:21:29.794Z,54.55
2023-05-10T05:23:57.779Z,54.62
2023-05-10T05:26:25.649Z,54.46
2023-05-10T05:28:55.460Z,53.51
2023-05-10T05:31:23.549Z,53.04
2023-05-10T05:33:52.012Z,52.58
2023-05-10T05:36:19.703Z,52.47
2023-05-10T05:38:47.863Z,52.59
2023-05-10T05:41:15.688Z,52.17
2023-05-10T05:43:43.850Z,51.75
2023-05-10T05:46:12.244Z,51.34
2023-05-10T05:48:40.062Z,51.18
2023-05-10T05:51:07.818Z,51.60
2023-05-10T05:53:35.934Z,51.63
2023-05-10T05:56:04.667Z,51.50
2023-05-10T05:58:32.502Z,51.40
2023-05-10T06:01:00.363Z,51.54
2023-05-10T06:03:28.288Z,51.76
2023-05-10T06:05:56.220Z,52.52
2023-05-10T06:08:24.324Z,57.14
2023-05-10T06:10:52.372Z,53.90
2023-05-10T06:13:20.955Z,52.43
2023-05-10T06:15:48.673Z,52.00
2023-05-10T06:18:16.388Z,52.29
2023-05-10T06:20:44.192Z,51.63
2023-05-10T06:23:12.318Z,51.04
2023-05-10T06:25:40.221Z,51.06
2023-05-10T06:28:08.027Z,50.73
2023-05-10T06:30:37.269Z,50.28
2023-05-10T06:33:05.280Z,49.90
2023-05-10T06:35:34.465Z,50.13
2023-05-10T06:38:02.699Z,49.76
2023-05-10T06:40:30.589Z,49.13
2023-05-10T06:42:58.445Z,49.11
2023-05-10T06:45:26.565Z,49.16
2023-05-10T06:47:54.575Z,48.56
2023-05-10T06:50:22.251Z,48.25
2023-05-10T06:52:51.722Z,48.46
2023-05-10T06:55:20.712Z,48.13
2023-05-10T06:57:48.786Z,47.20
2023-05-10T07:00:17.168Z,46.47
2023-05-10T07:02:45.468Z,45.28
2023-05-10T07:05:13.562Z,44.80
2023-05-10T07:07:41.547Z,44.79
2023-05-10T07:10:09.762Z,44.47
2023-05-10T07:12:37.596Z,42.96
2023-05-10T07:15:06.192Z,42.53
2023-05-10T07:17:34.478Z,42.33
2023-05-10T07:20:02.656Z,41.61
2023-05-10T07:22:30.540Z,40.58
2023-05-10T07:24:58.269Z,39.32
2023-05-10T07:27:26.255Z,38.65
2023-05-10T07:29:53.990Z,38.45
2023-05-10T07:32:22.544Z,38.30
2023-05-10T07:34:50.544Z,38.22
2023-05-10T07:37:18.485Z,37.86
2023-05-10T07:39:46.488Z,38.31
2023-05-10T07:42:14.195Z,39.04
2023-05-10T07:44:42.867Z,39.05
2023-05-10T07:47:10.707Z,38.98
2023-05-10T07:49:38.408Z,38.98
2023-05-10T07:52:06.332Z,39.21
2023-05-10T07:54:35.005Z,39.53
2023-05-10T07:57:02.946Z,39.55
2023-05-10T07:59:30.880Z,39.65
2023-05-10T08:01:58.734Z,38.95
2023-05-10T08:04:26.858Z,38.85
2023-05-10T08:06:54.596Z,38.68
2023-05-10T08:09:24.880Z,37.87
2023-05-10T08:11:53.327Z,36.97
2023-05-10T08:14:21.273Z,37.11
2023-05-10T08:16:49.332Z,36.56
2023-05-10T08:19:20.085Z,36.63
2023-05-10T08:21:48.469Z,37.23
2023-05-10T08:24:16.332Z,36.18
2023-05-10T08:26:44.101Z,35.89
2023-05-10T08:29:11.947Z,35.47
2023-05-10T08:31:39.857Z,35.19
2023-05-10T08:34:08.005Z,35.46
2023-05-10T08:36:36.082Z,34.75
2023-05-10T08:39:04.113Z,34.79
2023-05-10T08:41:34.362Z,34.76
2023-05-10T08:44:05.310Z,34.31
2023-05-10T08:46:35.471Z,34.02
2023-05-10T08:49:05.204Z,34.22
2023-05-10T08:51:36.894Z,34.27
2023-05-10T08:54:04.939Z,35.18
2023-05-10T08:56:32.830Z,35.18
2023-05-10T08:59:00.913Z,35.62
2023-05-10T09:01:28.988Z,35.77
2023-05-10T09:03:57.335Z,35.18
2023-05-10T09:06:25.527Z,34.85
2023-05-10T09:08:53.479Z,34.49
2023-05-10T09:11:21.989Z,33.97
2023-05-10T09:13:51.760Z,33.41
2023-05-10T09:16:21.585Z,33.64
2023-05-10T09:18:50.966Z,33.41
2023-05-10T09:21:20.366Z,32.67
2023-05-10T09:23:48.927Z,32.37
2023-05-10T09:26:17.401Z,33.06
2023-05-10T09:28:52.364Z,32.98
2023-05-10T09:31:20.412Z,32.00
2023-05-10T09:33:49.256Z,31.15
2023-05-10T09:36:17.167Z,31.51
2023-05-10T09:38:49.278Z,30.63
2023-05-10T09:41:18.448Z,29.86
2023-05-10T09:43:46.470Z,28.95
2023-05-10T09:46:14.898Z,28.82
2023-05-10T09:48:43.915Z,28.39
2023-05-10T09:51:11.889Z,28.30
2023-05-10T09:53:39.777Z,28.17
2023-05-10T09:56:07.763Z,27.48
2023-05-10T09:58:38.130Z,27.76
2023-05-10T10:01:11.663Z,27.53
2023-05-10T10:03:42.863Z,27.39
2023-05-10T10:06:26.444Z,27.32
2023-05-10T10:08:57.438Z,27.69
2023-05-10T10:11:25.261Z,27.74
2023-05-10T10:13:53.081Z,28.01
2023-05-10T10:16:21.554Z,28.71
2023-05-10T10:18:49.413Z,27.97
2023-05-10T10:21:17.743Z,27.99
2023-05-10T10:23:45.346Z,27.63
2023-05-10T10:26:13.635Z,27.59
2023-05-10T10:29:01.028Z,26.83
2023-05-10T10:31:33.559Z,26.83
2023-05-10T10:34:04.621Z,25.85
2023-05-10T10:36:34.545Z,25.78
2023-05-10T10:39:03.850Z,26.55
2023-05-10T10:41:36.720Z,26.78
2023-05-10T10:44:30.269Z,27.51
2023-05-10T10:47:12.609Z,27.88
2023-05-10T10:49:40.653Z,27.14
2023-05-10T10:52:32.427Z,27.17
2023-05-10T10:55:02.349Z,26.76
2023-05-10T10:57:32.616Z,26.65
2023-05-10T11:00:19.480Z,26.77
2023-05-10T11:02:49.719Z,26.26
2023-05-10T11:05:36.040Z,25.55
2023-05-10T11:08:12.993Z,25.13
2023-05-10T11:10:41.813Z,25.09
2023-05-10T11:13:10.292Z,24.94
2023-05-10T11:15:39.253Z,24.71
2023-05-10T11:18:20.172Z,24.82
2023-05-10T11:21:11.449Z,25.27
2023-05-10T11:23:48.161Z,25.51
2023-05-10T11:26:16.076Z,25.56
2023-05-10T11:28:48.037Z,25.76
2023-05-10T11:31:19.187Z,25.99
2023-05-10T11:33:48.059Z,26.12
2023-05-10T11:36:16.586Z,26.42
2023-05-10T11:38:44.422Z,26.76
2023-05-10T11:41:13.342Z,26.87
2023-05-10T11:43:41.520Z,26.85
2023-05-10T11:46:11.587Z,26.75
2023-05-10T11:48:39.785Z,27.00
2023-05-10T11:51:11.488Z,27.08
2023-05-10T11:53:39.587Z,27.12
2023-05-10T11:56:08.099Z,26.99
2023-05-10T11:58:37.163Z,26.78
2023-05-10T12:01:06.387Z,26.71
2023-05-10T12:03:35.329Z,26.70
2023-05-10T12:06:03.673Z,27.02
2023-05-10T12:08:32.004Z,26.98
2023-05-10T12:11:11.564Z,26.78
2023-05-10T12:13:42.859Z,27.01
2023-05-10T12:16:15.152Z,27.28
2023-05-10T12:18:46.055Z,27.14
2023-05-10T12:21:14.353Z,27.00
2023-05-10T12:23:43.036Z,26.57
2023-05-10T12:26:11.571Z,26.34
2023-05-10T12:28:42.998Z,26.26
2023-05-10T12:31:10.802Z,26.05
2023-05-10T12:33:45.651Z,25.09
2023-05-10T12:36:15.750Z,24.77
2023-05-10T12:38:44.385Z,24.46
2023-05-10T12:41:13.581Z,25.00
2023-05-10T12:43:41.767Z,24.57
2023-05-10T12:46:10.632Z,24.36
2023-05-10T12:48:39.403Z,24.26
2023-05-10T12:51:10.586Z,24.77
2023-05-10T12:53:39.434Z,25.72
2023-05-10T12:56:08.423Z,25.07
2023-05-10T12:58:36.435Z,25.46
2023-05-10T13:01:05.167Z,25.91
2023-05-10T13:03:34.765Z,26.16
2023-05-10T13:06:02.659Z,26.85
2023-05-10T13:08:34.790Z,26.55
2023-05-10T13:11:03.417Z,26.70
2023-05-10T13:13:31.363Z,26.71
2023-05-10T13:15:59.203Z,26.57
2023-05-10T13:18:27.543Z,26.72
2023-05-10T13:20:56.724Z,26.77
2023-05-10T13:23:24.675Z,27.06
2023-05-10T13:25:52.484Z,27.18
2023-05-10T13:28:20.472Z,27.03
2023-05-10T13:30:48.461Z,27.11
2023-05-10T13:33:16.207Z,27.20
2023-05-10T13:35:44.797Z,27.01
2023-05-10T13:38:13.055Z,26.49
2023-05-10T13:40:40.763Z,26.71
2023-05-10T13:43:08.671Z,26.77
2023-05-10T13:45:36.739Z,26.52
2023-05-10T13:48:04.790Z,26.10
2023-05-10T13:50:32.680Z,25.79
2023-05-10T13:53:00.497Z,25.91
2023-05-10T13:55:28.424Z,26.22
2023-05-10T13:57:56.781Z,26.35
2023-05-10T14:00:24.771Z,26.30
2023-05-10T14:02:52.692Z,26.02
2023-05-10T14:05:25.403Z,25.78
2023-05-10T14:07:53.467Z,25.56
2023-05-10T14:10:21.227Z,25.44
2023-05-10T14:12:49.007Z,25.31
2023-05-10T14:15:17.090Z,25.35
2023-05-10T14:17:45.176Z,25.27
2023-05-10T14:20:13.138Z,25.36
2023-05-10T14:22:41.522Z,25.37
2023-05-10T14:25:09.856Z,25.31
2023-05-10T14:27:37.564Z,24.93
2023-05-10T14:30:06.173Z,24.82
2023-05-10T14:32:34.911Z,24.98
2023-05-10T14:35:02.967Z,25.29
2023-05-10T14:37:30.889Z,25.29
2023-05-10T14:39:58.710Z,24.94
2023-05-10T14:42:26.727Z,24.94
2023-05-10T14:44:54.427Z,25.38
2023-05-10T14:47:22.197Z,25.72
2023-05-10T14:49:50.020Z,25.82
2023-05-10T14:52:18.650Z,25.89
2023-05-10T14:54:46.380Z,25.36
2023-05-10T14:57:14.053Z,25.12
2023-05-10T14:59:41.880Z,25.38
2023-05-10T15:02:11.414Z,25.55
2023-05-10T15:04:39.890Z,25.59
2023-05-10T15:07:08.308Z,25.60
2023-05-10T15:09:36.056Z,25.91
2023-05-10T15:12:03.909Z,25.90
2023-05-10T15:14:32.438Z,26.10
2023-05-10T15:17:00.855Z,26.23
2023-05-10T15:19:30.298Z,26.28
2023-05-10T15:21:58.042Z,26.77
2023-05-10T15:24:25.960Z,26.78
2023-05-10T15:26:54.187Z,26.82
2023-05-10T15:29:21.930Z,26.71
2023-05-10T15:31:50.815Z,26.80
2023-05-10T15:34:19.114Z,26.88
2023-05-10T15:36:47.109Z,26.95
2023-05-10T15:39:14.791Z,27.10
2023-05-10T15:41:42.851Z,26.65
2023-05-10T15:44:10.665Z,26.33
2023-05-10T15:46:38.999Z,26.31
2023-05-10T15:49:07.795Z,26.50
2023-05-10T15:51:36.756Z,26.15
2023-05-10T15:54:08.321Z,25.95
2023-05-10T15:56:36.523Z,25.73
2023-05-10T15:59:05.909Z,25.82
2023-05-10T16:01:33.709Z,26.11
2023-05-10T16:04:02.208Z,26.45
2023-05-10T16:06:30.669Z,26.70
2023-05-10T16:08:58.456Z,26.65
2023-05-10T16:11:26.591Z,26.84
2023-05-10T16:13:54.538Z,26.98
2023-05-10T16:16:22.561Z,26.99
2023-05-10T16:18:52.821Z,27.21
2023-05-10T16:21:20.876Z,27.24
2023-05-10T16:23:48.639Z,27.38
2023-05-10T16:26:16.980Z,27.43
2023-05-10T16:28:44.669Z,27.45
2023-05-10T16:31:12.993Z,27.47
2023-05-10T16:33:41.031Z,27.74
2023-05-10T16:36:08.982Z,27.91
2023-05-10T16:38:37.670Z,28.11
2023-05-10T16:41:06.675Z,28.19
2023-05-10T16:43:34.470Z,28.27
2023-05-10T16:46:02.271Z,28.48
2023-05-10T16:48:30.053Z,28.64
2023-05-10T16:50:58.087Z,28.73
2023-05-10T16:53:25.714Z,28.52
2023-05-10T16:55:53.578Z,28.55
2023-05-10T16:58:21.338Z,28.78
2023-05-10T17:00:49.027Z,28.75
2023-05-10T17:03:17.063Z,30.60
2023-05-10T17:05:44.785Z,30.96
2023-05-10T17:08:12.531Z,29.84
2023-05-10T17:10:41.784Z,29.46
2023-05-10T17:13:10.602Z,29.30
2023-05-10T17:15:39.188Z,29.38
2023-05-10T17:18:07.908Z,29.58
2023-05-10T17:20:35.738Z,29.80
2023-05-10T17:23:03.547Z,30.00
2023-05-10T17:25:31.521Z,30.17
2023-05-10T17:27:59.355Z,30.37
2023-05-10T17:30:28.776Z,30.34
2023-05-10T17:32:56.907Z,30.49
2023-05-10T17:35:24.957Z,31.18
2023-05-10T17:37:52.926Z,31.57
2023-05-10T17:40:20.714Z,31.36
2023-05-10T17:42:48.861Z,31.45
2023-05-10T17:45:17.359Z,31.67
2023-05-10T17:47:45.696Z,31.78
2023-05-10T17:50:13.544Z,31.99
2023-05-10T17:52:41.299Z,32.21
2023-05-10T17:55:09.435Z,32.55
2023-05-10T17:57:38.843Z,32.77
2023-05-10T18:00:09.509Z,33.03
2023-05-10T18:02:37.270Z,33.39
2023-05-10T18:05:05.480Z,33.99
2023-05-10T18:07:33.513Z,34.24
2023-05-10T18:10:01.393Z,34.24
2023-05-10T18:12:29.075Z,34.52
2023-05-10T18:14:57.309Z,35.02
2023-05-10T18:17:25.341Z,35.54
2023-05-10T18:19:53.120Z,36.02
2023-05-10T18:22:21.665Z,36.70
2023-05-10T18:24:49.495Z,36.25
2023-05-10T18:27:17.484Z,36.69
2023-05-10T18:29:45.396Z,36.93
2023-05-10T18:32:13.534Z,37.21
2023-05-10T18:34:41.207Z,37.12
2023-05-10T18:37:10.101Z,36.99
2023-05-10T18:39:37.962Z,37.01
2023-05-10T18:42:05.851Z,37.37
2023-05-10T18:44:33.776Z,37.50
2023-05-10T18:47:01.845Z,37.73
2023-05-10T18:49:29.632Z,38.16
2023-05-10T18:51:57.398Z,38.39
2023-05-10T18:54:25.115Z,38.37
2023-05-10T18:56:53.002Z,38.74
2023-05-10T18:59:20.811Z,39.02
2023-05-10T19:01:50.916Z,39.16
2023-05-10T19:04:19.033Z,39.17
2023-05-10T19:06:47.363Z,39.08
2023-05-10T19:09:15.395Z,38.95
2023-05-10T19:11:43.301Z,38.98
2023-05-10T19:14:11.643Z,39.02
2023-05-10T19:16:40.150Z,39.18
2023-05-10T19:19:07.990Z,39.14
2023-05-10T19:21:36.152Z,39.27
2023-05-10T19:24:04.122Z,39.45
2023-05-10T19:26:31.822Z,39.43
2023-05-10T19:28:59.734Z,39.62
2023-05-10T19:31:27.468Z,39.49
2023-05-10T19:34:00.850Z,39.43
2023-05-10T19:36:29.070Z,39.51
2023-05-10T19:38:56.819Z,39.63
2023-05-10T19:41:24.723Z,39.91
2023-05-10T19:43:53.882Z,40.17
2023-05-10T19:46:22.046Z,39.78
2023-05-10T19:48:50.225Z,40.03
2023-05-10T19:51:18.125Z,39.96
2023-05-10T19:53:46.025Z,39.94
2023-05-10T19:56:14.279Z,40.06
2023-05-10T19:58:42.933Z,40.13
2023-05-10T20:01:10.961Z,40.36
2023-05-10T20:03:39.085Z,40.72
2023-05-10T20:06:07.214Z,40.76
2023-05-10T20:08:34.991Z,40.80
2023-05-10T20:11:04.049Z,41.02
2023-05-10T20:13:32.158Z,41.47
2023-05-10T20:16:00.478Z,41.61
2023-05-10T20:18:28.558Z,41.58
2023-05-10T20:20:57.983Z,41.88
2023-05-10T20:23:25.907Z,42.07
2023-05-10T20:25:55.015Z,42.30
2023-05-10T20:28:23.817Z,42.35
2023-05-10T20:30:53.296Z,42.57
2023-05-10T20:33:21.911Z,42.74
2023-05-10T20:35:50.472Z,42.91
2023-05-10T20:38:18.464Z,43.00
2023-05-10T20:40:47.217Z,43.11
2023-05-10T20:43:15.019Z,43.42
2023-05-10T20:45:42.784Z,43.57
2023-05-10T20:48:10.656Z,43.68
2023-05-10T20:50:38.646Z,44.10
2023-05-10T20:53:06.482Z,44.28
2023-05-10T20:55:34.800Z,44.24
2023-05-10T20:58:04.708Z,44.51
2023-05-10T21:00:32.727Z,44.61
2023-05-10T21:03:00.721Z,44.57
2023-05-10T21:05:28.643Z,44.70
2023-05-10T21:07:56.631Z,44.79
2023-05-10T21:10:28.516Z,44.91
2023-05-10T21:12:56.865Z,44.99
2023-05-10T21:15:25.632Z,45.22
2023-05-10T21:17:54.351Z,45.21
2023-05-10T21:20:23.663Z,45.24
2023-05-10T21:22:51.498Z,45.30
2023-05-10T21:25:19.291Z,45.24
2023-05-10T21:27:47.415Z,45.17
2023-05-10T21:30:15.266Z,45.15
2023-05-10T21:32:43.455Z,45.06
2023-05-10T21:35:11.419Z,44.84
2023-05-10T21:37:39.135Z,44.78
2023-05-10T21:40:07.319Z,44.87
2023-05-10T21:42:35.112Z,45.02
2023-05-10T21:45:03.104Z,45.08
2023-05-10T21:47:30.877Z,45.13
2023-05-10T21:50:00.248Z,45.20
2023-05-10T21:52:27.902Z,45.36
2023-05-10T21:54:55.626Z,45.30
2023-05-10T21:57:23.501Z,45.37
2023-05-10T21:59:51.264Z,45.66
2023-05-10T22:02:19.404Z,45.77
2023-05-10T22:04:47.354Z,45.89
2023-05-10T22:07:16.825Z,46.26
2023-05-10T22:09:44.664Z,46.34
2023-05-10T22:12:14.810Z,46.51
2023-05-10T22:14:42.729Z,46.54
2023-05-10T22:17:10.648Z,46.41
2023-05-10T22:19:38.345Z,46.51
2023-05-10T22:22:06.299Z,46.70
2023-05-10T22:24:34.464Z,46.82
2023-05-10T22:27:02.912Z,47.10
2023-05-10T22:29:30.988Z,46.91
2023-05-10T22:31:58.860Z,46.80
2023-05-10T22:34:26.718Z,46.85
2023-05-10T22:36:54.541Z,46.70
2023-05-10T22:39:22.807Z,47.01
2023-05-10T22:41:51.072Z,47.10
2023-05-10T22:44:18.763Z,47.14
2023-05-10T22:46:46.658Z,47.12
2023-05-10T22:49:14.427Z,47.19
2023-05-10T22:51:42.542Z,47.21
2023-05-10T22:54:10.667Z,47.37
2023-05-10T22:56:38.506Z,47.45
2023-05-10T22:59:06.485Z,47.55
2023-05-10T23:01:34.381Z,47.53
2023-05-10T23:04:02.372Z,47.44
2023-05-10T23:06:30.241Z,47.41
2023-05-10T23:08:58.033Z,47.25
2023-05-10T23:11:25.880Z,47.24
2023-05-10T23:13:53.816Z,47.41
2023-05-10T23:16:21.914Z,47.26
2023-05-10T23:18:49.836Z,47.40
2023-05-10T23:21:17.732Z,47.38
2023-05-10T23:23:45.733Z,47.41
2023-05-10T23:26:13.460Z,47.36
2023-05-10T23:28:41.365Z,47.26
2023-05-10T23:31:09.130Z,47.30
2023-05-10T23:33:37.228Z,47.42
2023-05-10T23:36:05.108Z,47.60
2023-05-10T23:38:32.884Z,47.94
2023-05-10T23:41:01.059Z,47.98
2023-05-10T23:43:28.758Z,47.99
2023-05-10T23:45:57.808Z,47.99
2023-05-10T23:48:25.648Z,47.93
2023-05-10T23:50:53.564Z,47.75
2023-05-10T23:53:21.723Z,47.60
2023-05-10T23:55:50.109Z,47.68
2023-05-10T23:58:17.865Z,47.61
